createdAt,value
2018-01-14T00:01:52.143Z,1027.2
2018-01-14T00:02:52.376Z,1027.14
2018-01-14T00:03:52.736Z,1027.22
2018-01-14T00:04:53.006Z,1027.27
2018-01-14T00:05:53.340Z,1027.23
2018-01-14T00:06:53.360Z,1027.18
2018-01-14T00:07:53.383Z,1027.17
2018-01-14T00:08:53.561Z,1027.22
2018-01-14T00:09:53.611Z,1027.21
2018-01-14T00:10:54.065Z,1027.18
2018-01-14T00:11:54.154Z,1027.2
2018-01-14T00:12:54.255Z,1027.2
2018-01-14T00:13:54.399Z,1027.2
2018-01-14T00:14:55.176Z,1027.13
2018-01-14T00:15:55.299Z,1027.22
2018-01-14T00:16:55.194Z,1027.16
2018-01-14T00:17:55.223Z,1027.17
2018-01-14T00:18:55.842Z,1027.18
2018-01-14T00:19:55.839Z,1027.15
2018-01-14T00:20:55.822Z,1027.17
2018-01-14T00:21:55.840Z,1027.21
2018-01-14T00:22:56.051Z,1027.21
2018-01-14T00:23:55.891Z,1027.23
2018-01-14T00:24:55.908Z,1027.28
2018-01-14T00:25:55.929Z,1027.19
2018-01-14T00:26:56.384Z,1027.22
2018-01-14T00:27:56.762Z,1027.2
2018-01-14T00:28:56.753Z,1027.17
2018-01-14T00:29:57.180Z,1027.15
2018-01-14T00:30:57.282Z,1027.16
2018-01-14T00:31:57.183Z,1027.12
2018-01-14T00:32:57.199Z,1027.15
2018-01-14T00:33:57.304Z,1027.23
2018-01-14T00:34:57.238Z,1027.22
2018-01-14T00:35:57.322Z,1027.23
2018-01-14T00:36:57.282Z,1027.18
2018-01-14T00:37:57.320Z,1027.16
2018-01-14T00:38:57.323Z,1027.19
2018-01-14T00:39:57.342Z,1027.15
2018-01-14T00:40:57.408Z,1027.1
2018-01-14T00:41:57.400Z,1027.11
2018-01-14T00:42:57.536Z,1027.13
2018-01-14T00:43:57.853Z,1027.09
2018-01-14T00:44:57.864Z,1027.09
2018-01-14T00:45:57.886Z,1027.05
2018-01-14T00:46:58.205Z,1027.05
2018-01-14T00:47:59.082Z,1027.11
2018-01-14T00:48:58.689Z,1027.12
2018-01-14T00:49:59.138Z,1027.09
2018-01-14T00:50:59.587Z,1027.09
2018-01-14T00:51:59.604Z,1027.12
2018-01-14T00:52:59.761Z,1027.07
2018-01-14T00:53:59.638Z,1027.09
2018-01-14T00:55:00.008Z,1027.05
2018-01-14T00:56:00.079Z,1027.1
2018-01-14T00:56:59.934Z,1027.12
2018-01-14T00:57:59.958Z,1027.09
2018-01-14T00:58:59.991Z,1027.07
2018-01-14T01:00:00.149Z,1027.09
2018-01-14T01:01:00.545Z,1027.04
2018-01-14T01:02:00.320Z,1027.02
2018-01-14T01:03:00.430Z,1027.02
2018-01-14T01:04:00.452Z,1027.08
2018-01-14T01:05:00.441Z,1027.12
2018-01-14T01:06:00.312Z,1027.07
2018-01-14T01:07:00.613Z,1027.16
2018-01-14T01:08:00.343Z,1027.06
2018-01-14T01:09:00.588Z,1027.05
2018-01-14T01:10:00.631Z,1027
2018-01-14T01:11:00.534Z,1027.05
2018-01-14T01:12:00.651Z,1027.04
2018-01-14T01:13:00.715Z,1027.01
2018-01-14T01:14:00.383Z,1026.99
2018-01-14T01:15:00.356Z,1027.01
2018-01-14T01:16:00.333Z,1027.1
2018-01-14T01:17:00.421Z,1027.03
2018-01-14T01:18:00.431Z,1027.09
2018-01-14T01:19:00.808Z,1027.04
2018-01-14T01:20:00.433Z,1027.01
2018-01-14T01:21:00.671Z,1027.09
2018-01-14T01:22:00.676Z,1027.03
2018-01-14T01:23:00.529Z,1027.01
2018-01-14T01:24:00.509Z,1027.09
2018-01-14T01:25:00.720Z,1027.07
2018-01-14T01:26:00.616Z,1027.07
2018-01-14T01:27:00.547Z,1027.08
2018-01-14T01:28:00.995Z,1027.1
2018-01-14T01:29:00.831Z,1027.07
2018-01-14T01:30:01.006Z,1027.04
2018-01-14T01:31:00.878Z,1027.01
2018-01-14T01:32:00.927Z,1027.07
2018-01-14T01:33:01.182Z,1027.05
2018-01-14T01:34:02.104Z,1027.06
2018-01-14T01:35:02.604Z,1027.03
2018-01-14T01:36:02.323Z,1027.07
2018-01-14T01:37:02.154Z,1027.03
2018-01-14T01:38:02.151Z,1027
2018-01-14T01:39:02.707Z,1026.99
2018-01-14T01:40:02.209Z,1026.95
2018-01-14T01:41:02.218Z,1026.97
2018-01-14T01:42:02.240Z,1026.94
2018-01-14T01:43:02.306Z,1026.93
2018-01-14T01:44:02.304Z,1026.87
2018-01-14T01:45:02.331Z,1026.92
2018-01-14T01:46:02.490Z,1026.94
2018-01-14T01:47:02.508Z,1026.94
2018-01-14T01:48:02.494Z,1026.86
2018-01-14T01:49:02.373Z,1026.88
2018-01-14T01:50:02.391Z,1026.87
2018-01-14T01:51:02.412Z,1026.91
2018-01-14T01:52:02.429Z,1026.9
2018-01-14T01:53:02.620Z,1026.95
2018-01-14T01:54:02.834Z,1026.89
2018-01-14T01:55:02.795Z,1026.88
2018-01-14T01:56:02.824Z,1026.91
2018-01-14T01:57:02.831Z,1026.81
2018-01-14T01:58:02.858Z,1026.89
2018-01-14T01:59:02.881Z,1026.82
2018-01-14T02:02:17.765Z,1026.88
2018-01-14T02:03:18.356Z,1026.85
2018-01-14T02:04:17.810Z,1026.83
2018-01-14T02:05:18.023Z,1026.9
2018-01-14T02:06:18.730Z,1026.86
2018-01-14T02:07:18.371Z,1026.92
2018-01-14T02:08:18.276Z,1026.97
2018-01-14T02:09:18.440Z,1026.93
2018-01-14T02:10:17.940Z,1026.95
2018-01-14T02:11:18.038Z,1026.95
2018-01-14T02:12:17.969Z,1026.94
2018-01-14T02:13:17.982Z,1026.93
2018-01-14T02:14:18.043Z,1026.95
2018-01-14T02:15:18.822Z,1026.9
2018-01-14T02:16:18.659Z,1026.91
2018-01-14T02:17:18.778Z,1026.89
2018-01-14T02:18:18.790Z,1026.87
2018-01-14T02:19:18.838Z,1026.91
2018-01-14T02:20:18.834Z,1026.91
2018-01-14T02:21:18.776Z,1026.86
2018-01-14T02:22:18.819Z,1026.9
2018-01-14T02:23:18.819Z,1026.91
2018-01-14T02:24:18.835Z,1026.92
2018-01-14T02:25:19.245Z,1026.97
2018-01-14T02:26:19.743Z,1026.98
2018-01-14T02:27:19.378Z,1027.01
2018-01-14T02:28:19.314Z,1027.02
2018-01-14T02:29:19.309Z,1027.02
2018-01-14T02:30:19.520Z,1026.98
2018-01-14T02:31:19.543Z,1027.06
2018-01-14T02:32:19.432Z,1026.99
2018-01-14T02:33:19.408Z,1026.95
2018-01-14T02:34:19.452Z,1026.94
2018-01-14T02:35:19.559Z,1026.93
2018-01-14T02:36:19.622Z,1026.97
2018-01-14T02:37:19.633Z,1027.07
2018-01-14T02:38:19.671Z,1026.97
2018-01-14T02:39:19.964Z,1026.98
2018-01-14T02:40:19.656Z,1026.92
2018-01-14T02:41:19.749Z,1026.94
2018-01-14T02:42:20.252Z,1026.97
2018-01-14T02:43:20.647Z,1026.97
2018-01-14T02:44:20.299Z,1027.03
2018-01-14T02:45:21.585Z,1026.99
2018-01-14T02:46:21.623Z,1027
2018-01-14T02:47:21.200Z,1027.02
2018-01-14T02:48:21.233Z,1026.96
2018-01-14T02:49:21.343Z,1026.95
2018-01-14T02:50:21.650Z,1027.02
2018-01-14T02:51:21.717Z,1027.04
2018-01-14T02:52:21.755Z,1027.01
2018-01-14T02:53:22.034Z,1027.01
2018-01-14T02:54:21.794Z,1027.02
2018-01-14T02:55:21.770Z,1027.03
2018-01-14T02:56:22.181Z,1027.03
2018-01-14T02:57:22.241Z,1027.07
2018-01-14T02:58:22.416Z,1027.03
2018-01-14T02:59:22.403Z,1027.07
2018-01-14T03:00:22.442Z,1027.04
2018-01-14T03:01:22.457Z,1027.06
2018-01-14T03:02:22.823Z,1027.09
2018-01-14T03:03:22.851Z,1027.1
2018-01-14T03:04:22.849Z,1027.05
2018-01-14T03:05:23.124Z,1027.15
2018-01-14T03:06:23.036Z,1027.1
2018-01-14T03:07:23.076Z,1027.17
2018-01-14T03:08:23.122Z,1027.11
2018-01-14T03:09:23.264Z,1027.13
2018-01-14T03:10:23.367Z,1027.14
2018-01-14T03:11:23.333Z,1027.15
2018-01-14T03:12:23.318Z,1027.11
2018-01-14T03:13:24.376Z,1027.13
2018-01-14T03:14:24.043Z,1027.08
2018-01-14T03:15:24.423Z,1027.06
2018-01-14T03:16:24.434Z,1027.08
2018-01-14T03:17:24.508Z,1027.06
2018-01-14T03:18:24.627Z,1027.09
2018-01-14T03:19:25.017Z,1027.19
2018-01-14T03:20:25.072Z,1027.05
2018-01-14T03:21:25.514Z,1027.11
2018-01-14T03:22:25.508Z,1027.17
2018-01-14T03:23:25.698Z,1027.12
2018-01-14T03:24:25.566Z,1027.12
2018-01-14T03:25:26.039Z,1027.12
2018-01-14T03:26:26.055Z,1027.16
2018-01-14T03:27:26.175Z,1027.12
2018-01-14T03:28:26.357Z,1027.07
2018-01-14T03:29:26.228Z,1027.07
2018-01-14T03:30:26.616Z,1027.07
2018-01-14T03:31:26.634Z,1027.06
2018-01-14T03:32:26.644Z,1027.06
2018-01-14T03:33:27.019Z,1027.1
2018-01-14T03:34:27.384Z,1026.96
2018-01-14T03:35:27.051Z,1027.01
2018-01-14T03:36:27.078Z,1026.96
2018-01-14T03:37:27.317Z,1027.04
2018-01-14T03:38:27.520Z,1027.02
2018-01-14T03:39:27.552Z,1027.06
2018-01-14T03:40:27.554Z,1027.04
2018-01-14T03:41:27.584Z,1027.04
2018-01-14T03:42:28.239Z,1027.04
2018-01-14T03:43:28.265Z,1026.99
2018-01-14T03:44:28.343Z,1026.98
2018-01-14T03:45:28.733Z,1027.01
2018-01-14T03:46:28.300Z,1026.97
2018-01-14T03:47:28.320Z,1026.98
2018-01-14T03:48:29.731Z,1026.97
2018-01-14T03:49:29.634Z,1026.91
2018-01-14T03:50:29.525Z,1026.87
2018-01-14T03:51:29.726Z,1026.89
2018-01-14T03:52:29.852Z,1026.91
2018-01-14T03:53:29.394Z,1026.95
2018-01-14T03:54:29.508Z,1026.91
2018-01-14T03:55:29.612Z,1026.86
2018-01-14T03:56:29.638Z,1026.9
2018-01-14T03:57:30.097Z,1026.91
2018-01-14T03:58:30.227Z,1026.87
2018-01-14T03:59:30.150Z,1026.88
2018-01-14T04:00:30.346Z,1026.85
2018-01-14T04:01:30.186Z,1026.87
2018-01-14T04:02:30.645Z,1026.89
2018-01-14T04:03:31.076Z,1026.86
2018-01-14T04:04:30.869Z,1026.87
2018-01-14T04:05:30.737Z,1026.87
2018-01-14T04:06:31.044Z,1026.91
2018-01-14T04:07:30.862Z,1026.81
2018-01-14T04:08:30.825Z,1026.84
2018-01-14T04:09:30.948Z,1026.85
2018-01-14T04:10:31.520Z,1026.85
2018-01-14T04:11:31.483Z,1026.81
2018-01-14T04:12:31.530Z,1026.85
2018-01-14T04:13:31.657Z,1026.79
2018-01-14T04:14:31.946Z,1026.76
2018-01-14T04:15:31.889Z,1026.79
2018-01-14T04:16:31.927Z,1026.79
2018-01-14T04:17:32.038Z,1026.78
2018-01-14T04:18:31.669Z,1026.83
2018-01-14T04:19:32.097Z,1026.85
2018-01-14T04:20:31.747Z,1026.82
2018-01-14T04:21:31.820Z,1026.83
2018-01-14T04:22:31.745Z,1026.83
2018-01-14T04:23:31.775Z,1026.84
2018-01-14T04:24:32.193Z,1026.89
2018-01-14T04:25:32.532Z,1026.8
2018-01-14T04:26:32.208Z,1026.9
2018-01-14T04:27:32.253Z,1026.91
2018-01-14T04:28:32.273Z,1026.91
2018-01-14T04:29:32.884Z,1026.87
2018-01-14T04:30:32.857Z,1026.87
2018-01-14T04:31:32.740Z,1026.87
2018-01-14T04:32:32.756Z,1026.9
2018-01-14T04:33:32.925Z,1026.86
2018-01-14T04:34:33.167Z,1026.87
2018-01-14T04:35:33.235Z,1026.92
2018-01-14T04:36:32.806Z,1026.94
2018-01-14T04:37:32.875Z,1026.95
2018-01-14T04:38:33.164Z,1026.96
2018-01-14T04:39:33.185Z,1026.94
2018-01-14T04:40:33.632Z,1026.9
2018-01-14T04:41:33.797Z,1026.98
2018-01-14T04:42:33.230Z,1026.93
2018-01-14T04:43:33.264Z,1026.97
2018-01-14T04:44:33.280Z,1026.9
2018-01-14T04:45:33.282Z,1026.93
2018-01-14T04:46:33.432Z,1026.89
2018-01-14T04:47:33.325Z,1026.93
2018-01-14T04:48:33.476Z,1026.92
2018-01-14T04:49:33.869Z,1026.86
2018-01-14T04:50:33.886Z,1026.84
2018-01-14T04:51:33.912Z,1026.9
2018-01-14T04:52:33.935Z,1026.94
2018-01-14T04:53:33.953Z,1026.96
2018-01-14T04:54:34.533Z,1026.92
2018-01-14T04:55:34.264Z,1026.89
2018-01-14T04:56:34.295Z,1026.89
2018-01-14T04:57:34.648Z,1027.03
2018-01-14T04:58:34.801Z,1026.92
2018-01-14T04:59:34.796Z,1026.92
2018-01-14T05:00:37.179Z,1026.87
2018-01-14T05:01:37.295Z,1026.93
2018-01-14T05:03:48.184Z,1026.83
2018-01-14T05:04:48.682Z,1026.83
2018-01-14T05:05:47.987Z,1026.85
2018-01-14T05:06:48.016Z,1026.81
2018-01-14T05:07:48.392Z,1026.87
2018-01-14T05:08:49.111Z,1026.83
2018-01-14T05:09:49.011Z,1026.84
2018-01-14T05:10:49.588Z,1026.89
2018-01-14T05:11:49.313Z,1026.87
2018-01-14T05:12:49.557Z,1026.95
2018-01-14T05:13:49.359Z,1026.9
2018-01-14T05:14:49.368Z,1026.96
2018-01-14T05:15:49.666Z,1026.98
2018-01-14T05:16:49.675Z,1026.97
2018-01-14T05:17:49.708Z,1026.96
2018-01-14T05:18:49.751Z,1026.99
2018-01-14T05:19:50.096Z,1026.99
2018-01-14T05:20:50.174Z,1026.94
2018-01-14T05:21:50.354Z,1027.03
2018-01-14T05:22:50.142Z,1027.07
2018-01-14T05:23:50.155Z,1027.06
2018-01-14T05:24:50.337Z,1027.05
2018-01-14T05:25:50.868Z,1026.99
2018-01-14T05:26:50.510Z,1027.04
2018-01-14T05:27:50.398Z,1027.02
2018-01-14T05:28:50.437Z,1027.07
2018-01-14T05:29:50.431Z,1027.06
2018-01-14T05:30:50.775Z,1027.01
2018-01-14T05:31:50.873Z,1027.04
2018-01-14T05:32:51.588Z,1027.05
2018-01-14T05:33:51.800Z,1027.07
2018-01-14T05:34:51.879Z,1027.04
2018-01-14T05:35:51.964Z,1026.99
2018-01-14T05:36:52.034Z,1026.93
2018-01-14T05:37:51.825Z,1026.94
2018-01-14T05:38:52.139Z,1026.94
2018-01-14T05:39:51.903Z,1027
2018-01-14T05:40:51.705Z,1027.04
2018-01-14T05:41:52.108Z,1026.95
2018-01-14T05:42:52.117Z,1027.02
2018-01-14T05:43:52.129Z,1027
2018-01-14T05:44:52.172Z,1026.96
2018-01-14T05:45:52.259Z,1027.02
2018-01-14T05:46:52.345Z,1027.05
2018-01-14T05:47:52.928Z,1027.01
2018-01-14T05:48:52.321Z,1026.96
2018-01-14T05:49:52.314Z,1026.92
2018-01-14T05:50:52.359Z,1026.96
2018-01-14T05:51:52.770Z,1026.9
2018-01-14T05:52:52.909Z,1026.87
2018-01-14T05:53:53.119Z,1026.93
2018-01-14T05:54:53.039Z,1026.96
2018-01-14T05:55:52.941Z,1026.9
2018-01-14T05:56:52.864Z,1026.92
2018-01-14T05:57:53.179Z,1026.95
2018-01-14T05:58:53.404Z,1026.99
2018-01-14T05:59:53.776Z,1026.96
2018-01-14T06:00:53.768Z,1027.01
2018-01-14T06:01:53.788Z,1026.98
2018-01-14T06:02:53.945Z,1027.05
2018-01-14T06:03:53.828Z,1027.02
2018-01-14T06:04:53.840Z,1027.03
2018-01-14T06:05:53.866Z,1027.05
2018-01-14T06:06:53.879Z,1027.02
2018-01-14T06:07:54.322Z,1027.1
2018-01-14T06:08:54.332Z,1027.12
2018-01-14T06:09:54.345Z,1027.02
2018-01-14T06:10:54.600Z,1027.04
2018-01-14T06:11:54.852Z,1027.04
2018-01-14T06:12:54.841Z,1027.05
2018-01-14T06:13:54.689Z,1026.97
2018-01-14T06:14:54.696Z,1026.92
2018-01-14T06:15:55.118Z,1026.9
2018-01-14T06:16:54.753Z,1026.87
2018-01-14T06:17:54.739Z,1026.86
2018-01-14T06:18:54.743Z,1026.87
2018-01-14T06:19:55.251Z,1026.83
2018-01-14T06:20:54.777Z,1026.86
2018-01-14T06:21:54.953Z,1026.87
2018-01-14T06:22:55.136Z,1026.79
2018-01-14T06:23:55.159Z,1026.86
2018-01-14T06:24:55.331Z,1026.83
2018-01-14T06:25:55.189Z,1026.81
2018-01-14T06:26:55.542Z,1026.85
2018-01-14T06:27:55.122Z,1026.77
2018-01-14T06:28:55.104Z,1026.82
2018-01-14T06:29:55.114Z,1026.78
2018-01-14T06:30:55.273Z,1026.83
2018-01-14T06:31:55.230Z,1026.79
2018-01-14T06:32:55.680Z,1026.81
2018-01-14T06:33:55.914Z,1026.73
2018-01-14T06:34:56.029Z,1026.84
2018-01-14T06:35:56.120Z,1026.84
2018-01-14T06:36:55.965Z,1026.85
2018-01-14T06:37:55.984Z,1026.95
2018-01-14T06:38:56.000Z,1026.98
2018-01-14T06:39:56.448Z,1026.85
2018-01-14T06:40:56.519Z,1026.94
2018-01-14T06:41:56.871Z,1026.9
2018-01-14T06:42:56.887Z,1026.92
2018-01-14T06:43:56.923Z,1026.94
2018-01-14T06:44:56.928Z,1026.98
2018-01-14T06:45:56.975Z,1026.87
2018-01-14T06:46:57.255Z,1026.9
2018-01-14T06:47:57.174Z,1026.9
2018-01-14T06:48:57.210Z,1026.9
2018-01-14T06:49:57.256Z,1026.95
2018-01-14T06:50:57.500Z,1026.94
2018-01-14T06:51:57.852Z,1026.88
2018-01-14T06:52:57.884Z,1026.93
2018-01-14T06:53:58.158Z,1026.9
2018-01-14T06:54:58.157Z,1026.88
2018-01-14T06:55:58.183Z,1026.89
2018-01-14T06:56:58.204Z,1026.9
2018-01-14T06:57:58.654Z,1026.95
2018-01-14T06:58:58.838Z,1026.88
2018-01-14T06:59:58.513Z,1026.88
2018-01-14T07:00:58.570Z,1026.9
2018-01-14T07:01:58.905Z,1026.91
2018-01-14T07:02:58.920Z,1026.92
2018-01-14T07:03:59.364Z,1026.89
2018-01-14T07:04:59.385Z,1026.9
2018-01-14T07:05:59.418Z,1026.88
2018-01-14T07:06:59.711Z,1026.93
2018-01-14T07:08:00.151Z,1026.86
2018-01-14T07:09:00.168Z,1026.92
2018-01-14T07:10:00.183Z,1026.92
2018-01-14T07:11:00.220Z,1026.91
2018-01-14T07:12:00.215Z,1026.88
2018-01-14T07:13:00.252Z,1026.88
2018-01-14T07:14:00.257Z,1026.86
2018-01-14T07:15:00.362Z,1026.84
2018-01-14T07:16:00.294Z,1026.84
2018-01-14T07:17:00.309Z,1026.87
2018-01-14T07:18:00.457Z,1026.94
2018-01-14T07:19:00.494Z,1026.86
2018-01-14T07:20:00.572Z,1026.92
2018-01-14T07:21:01.054Z,1026.92
2018-01-14T07:22:01.180Z,1026.85
2018-01-14T07:23:01.237Z,1026.88
2018-01-14T07:24:01.069Z,1026.92
2018-01-14T07:25:01.354Z,1026.92
2018-01-14T07:26:01.161Z,1026.92
2018-01-14T07:27:01.246Z,1026.89
2018-01-14T07:28:01.222Z,1026.92
2018-01-14T07:29:01.649Z,1026.88
2018-01-14T07:30:01.936Z,1026.93
2018-01-14T07:31:02.031Z,1027.01
2018-01-14T07:32:02.327Z,1026.88
2018-01-14T07:33:01.887Z,1026.83
2018-01-14T07:34:02.578Z,1026.83
2018-01-14T07:35:02.565Z,1026.81
2018-01-14T07:36:02.615Z,1026.83
2018-01-14T07:37:02.635Z,1026.84
2018-01-14T07:38:02.641Z,1026.86
2018-01-14T07:39:02.633Z,1026.83
2018-01-14T07:40:02.802Z,1026.84
2018-01-14T07:41:03.117Z,1026.85
2018-01-14T07:42:03.148Z,1026.89
2018-01-14T07:43:02.778Z,1026.89
2018-01-14T07:45:02.756Z,1026.9
2018-01-14T07:46:02.911Z,1026.9
2018-01-14T07:47:02.874Z,1026.95
2018-01-14T07:48:02.952Z,1026.95
2018-01-14T07:49:03.321Z,1026.93
2018-01-14T07:50:02.856Z,1026.94
2018-01-14T07:51:02.997Z,1026.93
2018-01-14T07:52:03.033Z,1026.94
2018-01-14T07:53:03.297Z,1026.96
2018-01-14T07:54:03.752Z,1026.94
2018-01-14T07:55:03.684Z,1026.98
2018-01-14T07:56:03.822Z,1027
2018-01-14T07:57:03.963Z,1027.04
2018-01-14T07:58:04.661Z,1027.09
2018-01-14T07:59:04.636Z,1027.08
2018-01-14T08:00:19.660Z,1027.11
2018-01-14T08:01:20.104Z,1027.09
2018-01-14T08:02:20.070Z,1027.11
2018-01-14T08:03:20.403Z,1027.05
2018-01-14T08:04:20.484Z,1027.11
2018-01-14T08:05:20.481Z,1027.12
2018-01-14T08:06:20.472Z,1027.17
2018-01-14T08:07:20.489Z,1027.19
2018-01-14T08:08:20.516Z,1027.2
2018-01-14T08:09:20.628Z,1027.18
2018-01-14T08:10:20.575Z,1027.2
2018-01-14T08:11:21.062Z,1027.22
2018-01-14T08:12:21.003Z,1027.22
2018-01-14T08:13:20.962Z,1027.18
2018-01-14T08:14:21.019Z,1027.15
2018-01-14T08:15:20.997Z,1027.11
2018-01-14T08:16:20.656Z,1027.12
2018-01-14T08:17:20.985Z,1027.11
2018-01-14T08:18:21.009Z,1027.15
2018-01-14T08:19:21.430Z,1027.12
2018-01-14T08:20:21.444Z,1027.19
2018-01-14T08:21:21.875Z,1027.24
2018-01-14T08:22:21.500Z,1027.17
2018-01-14T08:23:21.463Z,1027.18
2018-01-14T08:24:21.483Z,1027.17
2018-01-14T08:25:22.327Z,1027.14
2018-01-14T08:26:22.445Z,1027.18
2018-01-14T08:27:22.461Z,1027.13
2018-01-14T08:28:22.526Z,1027.13
2018-01-14T08:29:22.501Z,1027.12
2018-01-14T08:30:22.513Z,1027.17
2018-01-14T08:31:22.743Z,1027.15
2018-01-14T08:32:22.898Z,1027.16
2018-01-14T08:33:22.945Z,1027.18
2018-01-14T08:34:22.962Z,1027.15
2018-01-14T08:35:22.994Z,1027.15
2018-01-14T08:36:23.101Z,1027.15
2018-01-14T08:37:23.156Z,1027.11
2018-01-14T08:38:23.129Z,1027.11
2018-01-14T08:39:23.156Z,1027.12
2018-01-14T08:40:23.173Z,1027.05
2018-01-14T08:41:23.889Z,1027.06
2018-01-14T08:42:23.796Z,1027.1
2018-01-14T08:43:23.797Z,1027.11
2018-01-14T08:44:23.821Z,1027.14
2018-01-14T08:45:23.990Z,1027.13
2018-01-14T08:46:24.026Z,1027.11
2018-01-14T08:47:24.169Z,1027.13
2018-01-14T08:48:24.172Z,1027.14
2018-01-14T08:49:24.500Z,1027.13
2018-01-14T08:50:24.573Z,1027.15
2018-01-14T08:51:24.806Z,1027.11
2018-01-14T08:52:24.730Z,1027.13
2018-01-14T08:53:24.615Z,1027.11
2018-01-14T08:54:24.660Z,1027.18
2018-01-14T08:55:24.790Z,1027.12
2018-01-14T08:56:24.812Z,1027.13
2018-01-14T08:57:24.819Z,1027.11
2018-01-14T08:58:24.885Z,1027.12
2018-01-14T08:59:25.048Z,1027.12
2018-01-14T09:00:25.123Z,1027.14
2018-01-14T09:01:25.126Z,1027.11
2018-01-14T09:02:25.120Z,1027.14
2018-01-14T09:03:25.364Z,1027.11
2018-01-14T09:04:25.212Z,1027.25
2018-01-14T09:05:25.428Z,1027.27
2018-01-14T09:06:25.346Z,1027.28
2018-01-14T09:07:25.361Z,1027.25
2018-01-14T09:08:25.729Z,1027.32
2018-01-14T09:09:40.366Z,1027.42
2018-01-14T09:10:40.421Z,1027.38
2018-01-14T09:11:40.475Z,1027.39
2018-01-14T09:12:40.876Z,1027.33
2018-01-14T09:13:41.075Z,1027.32
2018-01-14T09:14:41.169Z,1027.34
2018-01-14T09:15:41.127Z,1027.25
2018-01-14T09:16:41.130Z,1027.3
2018-01-14T09:17:41.233Z,1027.29
2018-01-14T09:18:41.250Z,1027.24
2018-01-14T09:19:41.684Z,1027.38
2018-01-14T09:20:42.166Z,1027.23
2018-01-14T09:21:42.189Z,1027.27
2018-01-14T09:22:42.270Z,1027.24
2018-01-14T09:23:42.239Z,1027.25
2018-01-14T09:24:42.256Z,1027.27
2018-01-14T09:25:42.317Z,1027.24
2018-01-14T09:26:42.801Z,1027.29
2018-01-14T09:27:42.898Z,1027.24
2018-01-14T09:28:42.946Z,1027.22
2018-01-14T09:29:42.978Z,1027.2
2018-01-14T09:30:43.001Z,1027.28
2018-01-14T09:31:43.021Z,1027.23
2018-01-14T09:32:43.053Z,1027.28
2018-01-14T09:33:43.087Z,1027.26
2018-01-14T09:34:43.342Z,1027.27
2018-01-14T09:35:43.580Z,1027.31
2018-01-14T09:36:43.151Z,1027.28
2018-01-14T09:37:43.229Z,1027.27
2018-01-14T09:38:43.191Z,1027.3
2018-01-14T09:39:43.207Z,1027.34
2018-01-14T09:40:43.324Z,1027.24
2018-01-14T09:41:43.287Z,1027.2
2018-01-14T09:42:43.286Z,1027.28
2018-01-14T09:43:43.283Z,1027.29
2018-01-14T09:44:43.946Z,1027.27
2018-01-14T09:45:43.670Z,1027.26
2018-01-14T09:46:43.996Z,1027.17
2018-01-14T09:47:44.038Z,1027.16
2018-01-14T09:48:44.106Z,1027.26
2018-01-14T09:49:44.111Z,1027.35
2018-01-14T09:50:44.111Z,1027.31
2018-01-14T09:51:44.465Z,1027.32
2018-01-14T09:52:44.739Z,1027.33
2018-01-14T09:53:44.423Z,1027.36
2018-01-14T09:54:44.436Z,1027.31
2018-01-14T09:55:44.675Z,1027.29
2018-01-14T09:56:44.497Z,1027.16
2018-01-14T09:57:44.698Z,1027.18
2018-01-14T09:58:44.549Z,1027.19
2018-01-14T09:59:44.624Z,1027.15
2018-01-14T10:00:44.691Z,1027.2
2018-01-14T10:01:44.775Z,1027.23
2018-01-14T10:02:44.613Z,1027.22
2018-01-14T10:04:44.667Z,1027.31
2018-01-14T10:05:44.810Z,1027.27
2018-01-14T10:06:45.280Z,1027.12
2018-01-14T10:07:45.106Z,1027.24
2018-01-14T10:08:45.162Z,1027.12
2018-01-14T10:09:45.276Z,1027.1
2018-01-14T10:10:45.579Z,1027.1
2018-01-14T10:11:45.608Z,1027.27
2018-01-14T10:12:45.622Z,1027.27
2018-01-14T10:13:46.081Z,1027.24
2018-01-14T10:14:46.243Z,1027.2
2018-01-14T10:15:46.139Z,1027.28
2018-01-14T10:16:46.152Z,1027.25
2018-01-14T10:17:46.233Z,1027.18
2018-01-14T10:18:46.177Z,1027.21
2018-01-14T10:19:46.213Z,1027.19
2018-01-14T10:20:46.847Z,1027.16
2018-01-14T10:21:46.717Z,1027.14
2018-01-14T10:22:46.741Z,1027.13
2018-01-14T10:23:46.766Z,1027.13
2018-01-14T10:24:46.947Z,1027.06
2018-01-14T10:25:46.945Z,1026.94
2018-01-14T10:26:47.229Z,1027.13
2018-01-14T10:27:47.730Z,1027.13
2018-01-14T10:28:47.612Z,1027.05
2018-01-14T10:29:47.653Z,1027.08
2018-01-14T10:30:47.667Z,1027.11
2018-01-14T10:31:47.685Z,1027.03
2018-01-14T10:32:47.815Z,1027
2018-01-14T10:33:48.175Z,1027.08
2018-01-14T10:34:48.170Z,1027.08
2018-01-14T10:35:47.902Z,1026.99
2018-01-14T10:36:48.350Z,1027.05
2018-01-14T10:37:48.240Z,1026.96
2018-01-14T10:38:48.103Z,1027.01
2018-01-14T10:39:48.321Z,1026.91
2018-01-14T10:40:48.274Z,1026.76
2018-01-14T10:41:48.324Z,1027.02
2018-01-14T10:42:48.374Z,1027.02
2018-01-14T10:43:48.367Z,1026.92
2018-01-14T10:44:48.374Z,1026.92
2018-01-14T10:45:48.822Z,1026.89
2018-01-14T10:46:48.832Z,1026.96
2018-01-14T10:47:48.936Z,1026.95
2018-01-14T10:48:48.966Z,1027.02
2018-01-14T10:49:49.463Z,1027.03
2018-01-14T10:50:49.462Z,1026.91
2018-01-14T10:51:49.482Z,1027.06
2018-01-14T10:52:49.546Z,1027.05
2018-01-14T10:53:49.694Z,1026.97
2018-01-14T10:54:49.830Z,1026.96
2018-01-14T10:55:49.899Z,1026.84
2018-01-14T10:56:49.936Z,1026.91
2018-01-14T10:57:49.942Z,1026.9
2018-01-14T10:58:50.016Z,1026.84
2018-01-14T10:59:49.976Z,1026.82
2018-01-14T11:00:50.026Z,1026.85
2018-01-14T11:01:50.444Z,1026.77
2018-01-14T11:02:50.470Z,1026.88
2018-01-14T11:03:50.516Z,1026.81
2018-01-14T11:04:50.508Z,1026.78
2018-01-14T11:05:50.892Z,1026.71
2018-01-14T11:06:50.957Z,1026.82
2018-01-14T11:07:51.227Z,1026.76
2018-01-14T11:08:51.363Z,1026.83
2018-01-14T11:09:51.197Z,1026.79
2018-01-14T11:10:51.634Z,1026.64
2018-01-14T11:11:51.656Z,1026.72
2018-01-14T11:12:51.261Z,1026.71
2018-01-14T11:13:51.308Z,1026.67
2018-01-14T11:14:51.629Z,1026.78
2018-01-14T11:15:51.335Z,1026.68
2018-01-14T11:16:51.358Z,1026.69
2018-01-14T11:17:51.401Z,1026.58
2018-01-14T11:18:51.726Z,1026.51
2018-01-14T11:19:51.999Z,1026.57
2018-01-14T11:20:51.995Z,1026.55
2018-01-14T11:21:52.665Z,1026.51
2018-01-14T11:22:52.094Z,1026.5
2018-01-14T11:23:52.161Z,1026.53
2018-01-14T11:24:52.645Z,1026.53
2018-01-14T11:25:52.654Z,1026.52
2018-01-14T11:26:52.674Z,1026.54
2018-01-14T11:27:52.698Z,1026.57
2018-01-14T11:28:52.727Z,1026.5
2018-01-14T11:29:52.761Z,1026.39
2018-01-14T11:30:52.778Z,1026.46
2018-01-14T11:31:52.812Z,1026.43
2018-01-14T11:32:52.813Z,1026.38
2018-01-14T11:33:52.849Z,1026.5
2018-01-14T11:34:52.884Z,1026.51
2018-01-14T11:35:52.883Z,1026.52
2018-01-14T11:36:52.901Z,1026.47
2018-01-14T11:37:53.170Z,1026.45
2018-01-14T11:38:53.609Z,1026.48
2018-01-14T11:39:54.745Z,1026.43
2018-01-14T11:40:54.610Z,1026.45
2018-01-14T11:41:54.451Z,1026.42
2018-01-14T11:42:54.471Z,1026.34
2018-01-14T11:43:54.585Z,1026.41
2018-01-14T11:44:55.008Z,1026.4
2018-01-14T11:45:54.570Z,1026.34
2018-01-14T11:46:54.562Z,1026.36
2018-01-14T11:47:54.582Z,1026.34
2018-01-14T11:48:54.602Z,1026.33
2018-01-14T11:49:55.787Z,1026.36
2018-01-14T11:50:55.851Z,1026.32
2018-01-14T11:51:55.559Z,1026.38
2018-01-14T11:52:55.503Z,1026.34
2018-01-14T11:53:55.510Z,1026.3
2018-01-14T11:54:55.580Z,1026.28
2018-01-14T11:55:55.564Z,1026.31
2018-01-14T11:56:55.639Z,1026.31
2018-01-14T11:57:55.926Z,1026.29
2018-01-14T11:58:56.124Z,1026.27
2018-01-14T11:59:56.119Z,1026.21
2018-01-14T12:00:56.125Z,1026.26
2018-01-14T12:01:56.242Z,1026.27
2018-01-14T12:02:56.865Z,1026.27
2018-01-14T12:03:57.021Z,1026.29
2018-01-14T12:04:57.033Z,1026.25
2018-01-14T12:05:56.863Z,1026.22
2018-01-14T12:06:56.851Z,1026.23
2018-01-14T12:07:57.020Z,1026.25
2018-01-14T12:08:56.912Z,1026.28
2018-01-14T12:09:56.941Z,1026.21
2018-01-14T12:10:57.152Z,1026.09
2018-01-14T12:11:57.249Z,1026.12
2018-01-14T12:12:56.887Z,1026.11
2018-01-14T12:13:57.029Z,1026.16
2018-01-14T12:14:57.328Z,1026.24
2018-01-14T12:15:57.261Z,1026.13
2018-01-14T12:16:57.342Z,1026.2